Time;durP1;ratioP1;P1;durP2;ratioP2;P2;SDS_P1;SDS_P2;PMS_P1;PMS_P2;Temp;Humidity;BMP_temperature;BMP_pressure;BME280_temperature;BME280_humidity;BME280_pressure;Samples;Min_cycle;Max_cycle;Signal;HPM_P1;HPM_P2
2022/09/26 00:02:24;;;;;;;3.72;3.30;;;;;;;12.82;78.16;63322.22;5042406;28;20581;-77
2022/09/26 00:04:52;;;;;;;3.83;3.40;;;;;;;12.85;77.70;63325.34;5043470;28;20229;-78
2022/09/26 00:07:19;;;;;;;5.85;2.63;;;;;;;12.89;76.93;63334.59;5043627;28;20573;-78
2022/09/26 00:09:47;;;;;;;3.30;3.10;;;;;;;12.88;76.85;63328.44;5045844;28;20202;-77
2022/09/26 00:12:14;;;;;;;4.82;2.85;;;;;;;12.91;76.72;63331.56;5037429;28;20249;-78
2022/09/26 00:14:41;;;;;;;3.40;2.88;;;;;;;12.91;78.67;63334.13;5029897;28;20249;-79
2022/09/26 00:17:08;;;;;;;3.42;3.17;;;;;;;12.90;79.23;63331.03;5026600;28;20241;-77
2022/09/26 00:19:35;;;;;;;4.70;3.22;;;;;;;12.94;79.89;63334.66;5033896;28;20201;-77
2022/09/26 00:22:03;;;;;;;2.72;2.63;;;;;;;12.99;79.25;63340.38;5039499;28;20211;-77
2022/09/26 00:24:30;;;;;;;2.85;2.65;;;;;;;12.96;79.44;63334.19;5043863;28;20297;-77
2022/09/26 00:26:57;;;;;;;3.03;2.83;;;;;;;12.85;81.26;63322.78;5045592;28;20317;-77
2022/09/26 00:29:23;;;;;;;3.30;3.03;;;;;;;12.82;81.07;63322.75;5044127;28;20256;-80
2022/09/26 00:31:51;;;;;;;3.40;2.65;;;;;;;12.81;81.13;63321.69;5042863;28;20248;-77
2022/09/26 00:34:20;;;;;;;2.92;2.72;;;;;;;12.76;81.38;63311.41;5045090;28;20194;-77
2022/09/26 00:36:47;;;;;;;3.22;3.00;;;;;;;12.77;80.95;63318.06;5044596;28;20280;-78
2022/09/26 00:39:16;;;;;;;5.28;2.75;;;;;;;12.75;80.91;63312.94;5031939;28;20202;-78
2022/09/26 00:41:44;;;;;;;4.60;3.08;;;;;;;12.74;80.71;63314.44;5047954;28;20201;-78
2022/09/26 00:44:44;;;;;;;3.28;3.08;;;;;;;12.82;80.91;63325.81;5042810;28;20232;-77
2022/09/26 00:47:23;;;;;;;3.13;2.92;;;;;;;12.82;81.38;63319.66;5043657;28;20542;-77
2022/09/26 00:49:53;;;;;;;3.38;3.08;;;;;;;12.83;80.89;63321.22;5041698;28;20217;-78
2022/09/26 00:52:24;;;;;;;3.55;3.33;;;;;;;12.89;80.76;63327.44;5044805;28;20271;-76
2022/09/26 00:54:56;;;;;;;3.30;2.83;;;;;;;12.93;80.83;63333.63;5036082;28;20213;-76
2022/09/26 00:57:27;;;;;;;3.75;2.40;;;;;;;12.95;80.60;63328.56;5042544;28;20226;-79
2022/09/26 00:59:58;;;;;;;3.97;2.92;;;;;;;13.00;81.41;63340.88;5042428;28;20202;-78
2022/09/26 01:02:27;;;;;;;3.58;3.28;;;;;;;13.08;81.97;63347.16;5046890;28;20462;-77
2022/09/26 01:04:55;;;;;;;2.88;2.67;;;;;;;13.05;81.90;63346.63;5042476;28;20240;-77
2022/09/26 01:07:25;;;;;;;3.67;3.38;;;;;;;13.09;81.74;63348.22;5043960;28;20214;-78
2022/09/26 01:09:54;;;;;;;3.25;3.05;;;;;;;13.14;81.60;63350.31;5036400;28;20201;-77
2022/09/26 01:12:22;;;;;;;5.90;3.30;;;;;;;13.18;81.94;63362.66;5042336;28;20443;-78
2022/09/26 01:14:52;;;;;;;3.67;3.40;;;;;;;13.16;83.32;63358.03;5041257;28;20202;-77
2022/09/26 01:17:20;;;;;;;4.32;3.90;;;;;;;13.24;83.18;63360.69;5045559;28;20222;-77
2022/09/26 01:19:57;;;;;;;3.22;2.95;;;;;;;13.25;83.45;63369.94;5049495;28;20197;-77
2022/09/26 01:22:53;;;;;;;3.70;3.40;;;;;;;13.25;83.08;63364.28;5046061;28;20510;-78
2022/09/26 01:25:28;;;;;;;3.63;3.42;;;;;;;13.24;84.19;63363.75;5048015;28;20256;-77
2022/09/26 01:28:07;;;;;;;3.75;3.40;;;;;;;13.34;82.84;63373.63;5046147;28;20227;-78
2022/09/26 01:30:44;;;;;;;4.07;3.78;;;;;;;13.28;83.27;63370.47;5045922;28;20495;-77
2022/09/26 01:33:39;;;;;;;4.30;3.53;;;;;;;13.28;83.91;63369.97;5046266;28;20214;-77
2022/09/26 01:36:33;;;;;;;5.68;3.30;;;;;;;13.35;84.07;63372.63;5041880;28;20207;-77
2022/09/26 01:39:14;;;;;;;3.50;3.30;;;;;;;13.32;82.37;63372.06;5045746;28;20217;-78
2022/09/26 01:41:50;;;;;;;5.97;3.38;;;;;;;13.29;85.47;63374.06;5045991;28;20206;-79
2022/09/26 01:44:27;;;;;;;3.67;3.38;;;;;;;13.31;85.08;63371.03;5048601;28;20233;-78
2022/09/26 01:46:58;;;;;;;3.95;3.33;;;;;;;13.33;85.02;63375.16;5046581;28;20451;-77
2022/09/26 01:49:31;;;;;;;4.20;3.90;;;;;;;13.37;86.47;63379.31;5046628;28;20197;-77
2022/09/26 01:52:01;;;;;;;4.10;3.80;;;;;;;13.39;86.94;63376.75;5047689;28;20225;-78
2022/09/26 01:54:35;;;;;;;3.90;3.60;;;;;;;13.51;86.17;63394.34;5045481;28;20225;-77
2022/09/26 01:57:05;;;;;;;3.95;3.08;;;;;;;13.52;85.41;63394.84;5048111;28;20222;-77
2022/09/26 01:59:39;;;;;;;3.95;3.30;;;;;;;13.56;85.67;63399.53;5047943;28;20507;-77
2022/09/26 02:02:13;;;;;;;4.30;3.97;;;;;;;13.54;85.67;63396.94;5045602;28;20588;-78
2022/09/26 02:04:43;;;;;;;4.82;4.43;;;;;;;13.56;84.89;63399.53;5032938;28;20227;-80
2022/09/26 02:07:13;;;;;;;4.30;3.75;;;;;;;13.62;83.57;63403.19;5027883;28;20219;-79
2022/09/26 02:09:45;;;;;;;3.80;3.60;;;;;;;13.65;83.35;63405.81;5046008;28;20201;-78
2022/09/26 02:12:18;;;;;;;4.03;3.67;;;;;;;13.69;84.16;63410.47;5049477;28;20214;-79
2022/09/26 02:14:48;;;;;;;5.72;3.63;;;;;;;13.71;85.28;63412.03;5043730;28;20198;-77
2022/09/26 02:17:21;;;;;;;4.30;3.70;;;;;;;13.69;86.19;63409.94;5045977;28;20229;-78
2022/09/26 02:19:56;;;;;;;4.45;3.85;;;;;;;13.59;85.52;63400.09;5046413;28;20226;-77
2022/09/26 02:22:24;;;;;;;4.80;3.75;;;;;;;13.63;85.52;63406.28;5046067;28;20408;-76
2022/09/26 02:24:50;;;;;;;3.53;3.33;;;;;;;13.65;86.77;63410.91;5045637;28;20237;-77
2022/09/26 02:27:18;;;;;;;3.60;3.30;;;;;;;13.63;86.31;63403.72;5045415;28;20222;-77
2022/09/26 02:29:44;;;;;;;5.68;3.47;;;;;;;13.63;86.52;63406.78;5047672;28;20224;-78
2022/09/26 02:32:15;;;;;;;3.70;3.50;;;;;;;13.62;84.65;63405.22;5046503;28;20225;-78
2022/09/26 02:34:46;;;;;;;7.85;3.67;;;;;;;13.65;84.58;63408.88;5044692;28;20198;-78
2022/09/26 02:37:15;;;;;;;4.18;3.88;;;;;;;13.58;83.44;63395.97;5045838;28;20218;-78
2022/09/26 02:39:45;;;;;;;3.58;3.38;;;;;;;13.60;83.40;63406.25;5035993;28;20245;-79
2022/09/26 02:42:20;;;;;;;3.58;3.28;;;;;;;13.61;83.25;63396.53;5030539;28;20224;-77
2022/09/26 02:45:06;;;;;;;3.70;3.40;;;;;;;13.67;82.04;63408.38;5046171;28;20236;-77
2022/09/26 02:47:51;;;;;;;4.22;3.92;;;;;;;13.68;81.75;63409.41;5047332;28;20245;-77
2022/09/26 02:50:36;;;;;;;6.20;3.42;;;;;;;13.68;81.96;63411.47;5029530;28;20480;-77
2022/09/26 02:53:12;;;;;;;5.43;3.85;;;;;;;13.68;81.88;63406.34;5040922;28;20218;-79
2022/09/26 02:55:46;;;;;;;3.53;3.33;;;;;;;13.73;81.48;63416.66;5043613;28;20207;-78
2022/09/26 02:58:21;;;;;;;3.95;3.45;;;;;;;13.73;81.70;63417.19;5042629;28;20267;-78
2022/09/26 03:00:57;;;;;;;3.97;3.67;;;;;;;13.78;79.53;63424.41;5026645;28;20221;-77
2022/09/26 03:03:32;;;;;;;3.60;3.40;;;;;;;13.79;79.65;63423.41;5041004;28;20454;-78
2022/09/26 03:06:03;;;;;;;3.97;3.45;;;;;;;13.78;79.68;63422.38;5044472;28;20217;-78
2022/09/26 03:08:33;;;;;;;4.13;3.70;;;;;;;13.69;84.30;63407.91;5032148;28;20465;-78
2022/09/26 03:11:09;;;;;;;7.22;4.40;;;;;;;13.68;82.95;63409.41;5037021;28;20193;-81
2022/09/26 03:13:39;;;;;;;4.28;3.53;;;;;;;13.68;82.55;63404.28;5033479;28;20245;-77
2022/09/26 03:16:08;;;;;;;4.15;3.90;;;;;;;13.75;81.22;63421.28;5038560;28;20202;-78
2022/09/26 03:18:41;;;;;;;4.07;3.72;;;;;;;13.75;80.59;63421.28;5026532;28;20215;-77
2022/09/26 03:21:10;;;;;;;4.38;3.80;;;;;;;13.81;80.13;63425.47;5037063;28;20209;-77
2022/09/26 03:23:37;;;;;;;5.05;3.85;;;;;;;13.81;78.92;63419.84;5043818;28;20414;-79
2022/09/26 03:26:09;;;;;;;5.53;4.55;;;;;;;13.70;79.65;63414.06;5043499;28;20252;-78
2022/09/26 03:28:37;;;;;;;4.68;3.70;;;;;;;13.79;80.85;63417.75;5043762;28;20453;-79
2022/09/26 03:31:03;;;;;;;4.00;3.70;;;;;;;13.61;81.13;63404.19;5043978;28;20208;-76
2022/09/26 03:33:31;;;;;;;3.92;3.63;;;;;;;13.57;81.68;63400.56;5044839;28;20222;-80
2022/09/26 03:35:58;;;;;;;3.80;3.47;;;;;;;13.60;83.01;63400.59;5045068;28;20224;-76
2022/09/26 03:38:27;;;;;;;4.28;3.95;;;;;;;13.64;83.95;63407.31;5046361;28;20277;-78
2022/09/26 03:40:54;;;;;;;8.88;4.47;;;;;;;13.52;82.74;63395.38;5044750;28;20204;-79
2022/09/26 03:43:23;;;;;;;4.10;3.67;;;;;;;13.36;86.60;63375.69;5043577;28;20263;-78
2022/09/26 03:45:50;;;;;;;5.20;3.63;;;;;;;13.42;86.06;63384.47;5045327;28;20541;-78
2022/09/26 03:48:16;;;;;;;4.97;4.47;;;;;;;13.38;83.90;63380.84;5047023;28;20222;-77
2022/09/26 03:50:43;;;;;;;8.25;4.60;;;;;;;13.39;84.19;63384.44;5030871;28;20249;-78
2022/09/26 03:53:10;;;;;;;4.80;3.78;;;;;;;13.37;85.04;63372.16;5043421;28;20222;-79
2022/09/26 03:55:39;;;;;;;4.10;3.80;;;;;;;13.42;84.44;63389.59;5045984;28;20228;-78
2022/09/26 03:58:06;;;;;;;8.27;4.00;;;;;;;13.43;84.78;63386.03;5040520;28;20538;-78
2022/09/26 04:00:32;;;;;;;6.55;4.05;;;;;;;13.49;83.34;63391.75;5043339;28;20478;-78
2022/09/26 04:03:02;;;;;;;4.95;4.47;;;;;;;13.56;82.47;63401.56;5045947;28;20240;-78
2022/09/26 04:05:29;;;;;;;6.20;4.00;;;;;;;13.53;82.37;63396.41;5043610;28;20539;-78
2022/09/26 04:07:58;;;;;;;4.30;4.00;;;;;;;13.65;82.42;63406.31;5047045;28;20222;-77
2022/09/26 04:10:26;;;;;;;7.28;4.28;;;;;;;13.60;83.21;63403.69;5046873;28;20367;-77
2022/09/26 04:12:55;;;;;;;6.55;4.50;;;;;;;13.65;83.71;63408.38;5044063;28;20217;-78
2022/09/26 04:15:22;;;;;;;5.82;4.18;;;;;;;13.68;83.51;63409.41;5045204;28;20213;-77
2022/09/26 04:17:49;;;;;;;6.32;4.13;;;;;;;13.71;83.02;63412.53;5044837;28;20412;-78
2022/09/26 04:20:16;;;;;;;3.92;3.63;;;;;;;13.70;82.74;63411.00;5042892;28;20340;-77
2022/09/26 04:22:43;;;;;;;6.32;4.38;;;;;;;13.75;83.38;63418.75;5043196;28;20289;-78
2022/09/26 04:25:10;;;;;;;4.45;4.15;;;;;;;13.78;84.44;63424.94;5045483;28;20320;-78
2022/09/26 04:27:37;;;;;;;4.70;4.20;;;;;;;13.77;83.66;63418.25;5039375;28;20391;-78
2022/09/26 04:30:06;;;;;;;6.30;4.18;;;;;;;13.76;83.74;63417.72;5043822;28;20205;-78
2022/09/26 04:32:33;;;;;;;7.47;3.90;;;;;;;13.80;83.86;63421.38;5041966;28;20229;-78
2022/09/26 04:35:00;;;;;;;6.65;4.18;;;;;;;13.84;83.73;63422.94;5039052;28;20201;-77
2022/09/26 04:37:27;;;;;;;6.35;4.47;;;;;;;13.83;84.60;63425.00;5042582;28;20283;-78
2022/09/26 04:39:54;;;;;;;5.07;4.72;;;;;;;13.88;84.72;63437.34;5045423;28;20198;-78
2022/09/26 04:42:23;;;;;;;7.45;4.63;;;;;;;13.90;85.14;63432.25;5041529;28;20218;-79
2022/09/26 04:44:50;;;;;;;5.05;3.70;;;;;;;13.95;85.25;63439.50;5043343;28;20229;-77
2022/09/26 04:47:18;;;;;;;5.35;4.85;;;;;;;13.97;84.52;63441.03;5044883;28;20428;-79
2022/09/26 04:49:45;;;;;;;4.40;3.63;;;;;;;14.02;83.32;63439.06;5043321;28;20198;-79
2022/09/26 04:52:14;;;;;;;5.47;4.05;;;;;;;14.08;82.93;63450.41;5039891;28;20443;-79
2022/09/26 04:54:40;;;;;;;4.72;4.20;;;;;;;14.05;83.07;63449.88;5042586;28;20228;-77
2022/09/26 04:57:07;;;;;;;6.47;3.88;;;;;;;14.07;83.03;63454.50;5043561;28;20219;-76
2022/09/26 04:59:34;;;;;;;6.22;4.55;;;;;;;14.01;83.14;63448.28;5044543;28;20205;-78
2022/09/26 05:02:06;;;;;;;5.00;4.35;;;;;;;14.02;83.87;63446.75;5040189;28;20217;-77
2022/09/26 05:04:35;;;;;;;3.58;3.25;;;;;;;14.09;83.43;63456.06;5041339;28;20198;-78
2022/09/26 05:07:02;;;;;;;6.18;4.65;;;;;;;14.08;83.52;63452.47;5035419;28;20629;-78
2022/09/26 05:09:28;;;;;;;5.93;4.25;;;;;;;14.16;81.71;63458.75;5036960;28;20198;-77
2022/09/26 05:11:56;;;;;;;5.90;3.58;;;;;;;14.24;80.82;63469.59;5029427;28;20218;-77
2022/09/26 05:14:23;;;;;;;4.03;3.72;;;;;;;14.25;80.24;63465.53;5040619;28;20214;-77
2022/09/26 05:16:50;;;;;;;3.72;3.40;;;;;;;14.24;80.71;63466.50;5030010;28;20527;-78
2022/09/26 05:19:17;;;;;;;5.47;3.83;;;;;;;14.21;82.24;63463.94;5032695;28;20249;-75
2022/09/26 05:21:45;;;;;;;4.38;3.97;;;;;;;14.27;81.63;63472.72;5030829;28;20194;-77
2022/09/26 05:26:57;;;;;;;8.77;4.18;;;;;;;14.47;81.47;63487.84;5031234;28;20244;-78
2022/09/26 05:29:25;;;;;;;5.60;4.03;;;;;;;14.52;80.78;63496.13;5033149;28;20198;-78
2022/09/26 05:31:53;;;;;;;6.15;4.07;;;;;;;14.74;80.52;63521.03;5030264;28;20214;-77
2022/09/26 05:34:20;;;;;;;6.65;3.92;;;;;;;15.00;79.26;63548.03;5030574;28;20202;-77
2022/09/26 05:36:49;;;;;;;4.13;3.75;;;;;;;15.16;78.62;63564.16;5040579;28;20228;-78
2022/09/26 05:42:00;;;;;;;7.93;3.78;;;;;;;15.56;79.26;63601.13;5041996;28;20225;-77
2022/09/26 05:44:28;;;;;;;3.72;3.40;;;;;;;15.74;78.02;63627.00;5036910;28;20205;-78
2022/09/26 05:46:56;;;;;;;4.18;3.78;;;;;;;15.87;76.63;63637.97;5040020;28;20228;-77
2022/09/26 05:49:22;;;;;;;6.15;4.07;;;;;;;15.95;73.26;63643.72;5040733;28;20424;-77
2022/09/26 05:51:52;;;;;;;3.85;3.65;;;;;;;16.01;71.55;63647.91;5040804;28;20313;-78
2022/09/26 05:54:18;;;;;;;6.75;4.25;;;;;;;15.96;71.58;63647.34;5038749;28;20411;-78
2022/09/26 05:56:46;;;;;;;4.35;3.97;;;;;;;16.02;71.26;63651.53;5041726;28;20244;-77
2022/09/26 05:59:13;;;;;;;4.43;3.85;;;;;;;16.10;70.11;63659.34;5043742;28;20221;-77
2022/09/26 06:01:40;;;;;;;3.78;3.58;;;;;;;16.15;69.62;63662.47;5041451;28;20197;-79
2022/09/26 06:04:07;;;;;;;11.77;5.45;;;;;;;16.02;77.80;63653.56;5036423;28;20213;-77
2022/09/26 06:06:34;;;;;;;11.25;5.88;;;;;;;15.82;80.89;63633.31;5045281;28;20287;-78
2022/09/26 06:09:02;;;;;;;24.95;8.25;;;;;;;15.88;82.30;63636.97;5044555;28;20260;-77
2022/09/26 06:11:30;;;;;;;12.82;7.93;;;;;;;15.94;81.61;63643.22;5046488;28;20208;-77
2022/09/26 06:13:59;;;;;;;22.05;8.45;;;;;;;15.88;81.58;63636.44;5044351;28;20237;-77
2022/09/26 06:16:26;;;;;;;11.90;7.55;;;;;;;15.60;80.78;63612.47;5046173;28;20197;-77
2022/09/26 06:18:54;;;;;;;17.23;8.45;;;;;;;15.57;80.94;63601.66;5040783;28;20562;-76
2022/09/26 06:21:23;;;;;;;18.38;8.02;;;;;;;15.65;80.49;63612.53;5043874;28;20205;-78
2022/09/26 06:23:52;;;;;;;10.38;7.15;;;;;;;15.53;78.82;63602.63;5041540;28;20236;-77
2022/09/26 06:26:23;;;;;;;15.32;7.45;;;;;;;15.43;79.38;63595.31;5046695;28;20337;-78
2022/09/26 06:28:55;;;;;;;8.40;5.45;;;;;;;15.74;74.46;63624.97;5047864;28;20273;-78
2022/09/26 06:31:24;;;;;;;5.60;5.05;;;;;;;15.79;71.61;63629.66;5044464;28;20213;-77
2022/09/26 06:33:52;;;;;;;6.40;5.43;;;;;;;15.65;72.13;63612.53;5035134;28;20565;-77
2022/09/26 06:36:20;;;;;;;22.20;6.63;;;;;;;15.66;71.02;63619.22;5035470;28;20208;-77
2022/09/26 06:38:48;;;;;;;7.70;5.55;;;;;;;15.64;72.78;63614.59;5035877;28;20210;-78
2022/09/26 06:41:15;;;;;;;10.98;5.70;;;;;;;16.02;73.05;63656.13;5038962;28;20252;-78
2022/09/26 06:43:43;;;;;;;18.67;6.22;;;;;;;16.29;69.68;63679.06;5039871;28;20237;-77
2022/09/26 06:46:10;;;;;;;8.63;6.88;;;;;;;16.45;70.93;63700.88;5037413;28;20233;-77
2022/09/26 06:48:37;;;;;;;11.45;6.20;;;;;;;16.48;68.00;63698.84;5039228;28;20217;-77
2022/09/26 06:51:04;;;;;;;13.35;5.35;;;;;;;16.41;65.47;63696.19;5035598;28;20205;-77
2022/09/26 06:53:33;;;;;;;6.00;5.50;;;;;;;16.55;62.69;63708.72;5035568;28;20256;-78
2022/09/26 06:56:01;;;;;;;7.43;5.38;;;;;;;16.20;62.46;63672.31;5036943;28;20205;-77
2022/09/26 06:58:28;;;;;;;10.02;5.70;;;;;;;16.13;66.00;63665.53;5036894;28;20221;-77
2022/09/26 07:00:58;;;;;;;9.85;6.28;;;;;;;16.43;65.76;63693.13;5040168;28;20225;-78
2022/09/26 07:03:25;;;;;;;13.02;6.22;;;;;;;16.52;63.90;63703.03;5037059;28;20222;-76
2022/09/26 07:05:54;;;;;;;13.55;5.90;;;;;;;16.74;62.21;63722.84;5033921;28;20225;-75
2022/09/26 07:08:24;;;;;;;5.75;5.15;;;;;;;16.89;60.80;63746.16;5037031;28;20273;-77
2022/09/26 07:10:51;;;;;;;4.93;4.53;;;;;;;16.67;58.98;63718.63;5036890;28;20552;-78
2022/09/26 07:13:18;;;;;;;11.00;7.30;;;;;;;16.77;63.82;63731.63;5036485;28;20233;-78
2022/09/26 07:15:46;;;;;;;10.15;6.30;;;;;;;16.98;59.92;63755.53;5038475;28;20190;-78
2022/09/26 07:18:14;;;;;;;5.50;4.93;;;;;;;17.33;56.10;63789.91;5038454;28;20224;-77
2022/09/26 07:20:46;;;;;;;7.70;5.20;;;;;;;17.33;56.21;63789.38;5040327;28;20223;-77
2022/09/26 07:23:14;;;;;;;11.27;6.00;;;;;;;17.22;59.08;63780.50;5040119;28;20531;-78
2022/09/26 07:25:44;;;;;;;6.15;5.55;;;;;;;17.21;58.28;63777.41;5037095;28;20257;-78
2022/09/26 07:28:11;;;;;;;12.13;5.70;;;;;;;17.44;56.67;63795.16;5045930;28;20280;-78
2022/09/26 07:30:38;;;;;;;9.10;5.22;;;;;;;17.34;57.15;63790.94;5047030;28;20212;-77
2022/09/26 07:33:05;;;;;;;10.48;5.72;;;;;;;17.11;57.18;63767.00;5045783;28;20225;-77
2022/09/26 07:35:36;;;;;;;7.05;5.00;;;;;;;17.19;56.81;63774.78;5041962;28;20228;-77
2022/09/26 07:38:03;;;;;;;6.53;4.45;;;;;;;16.82;56.87;63733.72;5039975;28;20229;-77
2022/09/26 07:40:31;;;;;;;5.03;4.53;;;;;;;16.62;56.95;63716.00;5038810;28;20204;-77
2022/09/26 07:43:00;;;;;;;7.50;4.75;;;;;;;16.50;57.55;63695.81;5045487;28;20443;-77
2022/09/26 07:50:57;;;;;;;5.55;4.97;;;;;;;16.20;58.96;63672.81;5046933;28;20200;-77
2022/09/26 07:53:25;;;;;;;4.95;4.32;;;;;;;16.35;59.67;63684.78;5046260;28;20458;-78
2022/09/26 07:56:09;;;;;;;6.50;4.60;;;;;;;16.51;59.28;63704.56;5044926;28;20224;-77
2022/09/26 07:58:38;;;;;;;6.95;4.90;;;;;;;16.63;58.57;63711.91;5044632;28;20247;-77
2022/09/26 08:01:06;;;;;;;5.43;3.90;;;;;;;16.77;57.18;63731.63;5046557;28;20205;-77
2022/09/26 08:03:33;;;;;;;9.10;3.85;;;;;;;16.96;56.97;63753.44;5045804;28;20217;-78
2022/09/26 08:06:02;;;;;;;4.75;4.35;;;;;;;17.23;56.55;63774.34;5044924;28;20235;-78
2022/09/26 08:08:29;;;;;;;4.85;4.00;;;;;;;17.33;54.93;63784.22;5046057;28;20217;-78
2022/09/26 08:10:57;;;;;;;5.63;4.78;;;;;;;17.29;53.80;63780.06;5043742;28;20205;-77
2022/09/26 08:13:26;;;;;;;6.72;3.92;;;;;;;17.36;54.30;63791.97;5044030;28;20213;-78
2022/09/26 08:15:53;;;;;;;3.80;3.50;;;;;;;17.75;53.64;63835.19;5045820;28;20197;-77
2022/09/26 08:18:20;;;;;;;5.78;3.63;;;;;;;18.06;53.88;63862.31;5043484;28;20264;-77
2022/09/26 08:20:48;;;;;;;4.28;3.47;;;;;;;18.25;50.98;63882.13;5044411;28;20197;-77
2022/09/26 08:23:17;;;;;;;4.50;3.63;;;;;;;18.32;51.85;63894.56;5046754;28;20279;-78
2022/09/26 08:25:44;;;;;;;4.05;3.72;;;;;;;18.35;52.48;63895.63;5043310;28;20229;-78
2022/09/26 08:28:12;;;;;;;4.03;3.72;;;;;;;18.50;51.75;63915.41;5042860;28;20236;-77
2022/09/26 08:30:39;;;;;;;5.25;3.50;;;;;;;18.27;51.70;63887.28;5044790;28;20465;-77
2022/09/26 08:33:07;;;;;;;6.50;3.60;;;;;;;18.21;51.97;63883.63;5043768;28;20218;-78
2022/09/26 08:35:37;;;;;;;7.22;4.18;;;;;;;18.13;51.20;63869.63;5044333;28;20197;-77
2022/09/26 08:38:06;;;;;;;3.88;3.58;;;;;;;18.04;51.09;63860.22;5042654;28;20225;-77
2022/09/26 08:40:45;;;;;;;4.10;3.80;;;;;;;18.02;51.29;63863.81;5043805;28;20394;-77
2022/09/26 08:43:29;;;;;;;4.43;4.00;;;;;;;18.11;51.28;63867.53;5046063;28;20243;-78
2022/09/26 08:49:19;;;;;;;12.30;4.18;;;;;;;18.26;51.63;63888.81;5008500;28;20378;-76
2022/09/26 08:51:49;;;;;;;4.60;3.40;;;;;;;18.02;52.09;63860.72;5024267;28;20236;-77
2022/09/26 08:54:18;;;;;;;8.98;3.63;;;;;;;18.01;52.63;63859.69;5031248;28;20220;-79
2022/09/26 08:56:50;;;;;;;12.20;4.00;;;;;;;18.24;51.96;63883.66;5044348;28;20499;-77
2022/09/26 08:59:25;;;;;;;4.10;3.80;;;;;;;18.28;51.56;63888.34;5044684;28;20224;-77
2022/09/26 09:01:56;;;;;;;5.50;4.03;;;;;;;18.11;51.18;63868.06;5044185;28;20217;-77
2022/09/26 09:04:31;;;;;;;4.30;4.00;;;;;;;18.38;51.22;63896.19;5034590;28;20265;-77
2022/09/26 09:07:05;;;;;;;8.63;4.13;;;;;;;17.84;51.38;63841.97;5042071;28;20316;-77
2022/09/26 09:09:32;;;;;;;4.95;4.47;;;;;;;17.62;52.34;63821.66;5038209;28;20198;-77
2022/09/26 09:12:13;;;;;;;8.88;4.93;;;;;;;17.84;52.03;63845.09;5035052;28;20224;-78
2022/09/26 09:15:04;;;;;;;6.45;4.63;;;;;;;18.12;51.47;63876.81;5041102;28;20209;-77
2022/09/26 09:17:40;;;;;;;10.38;5.55;;;;;;;18.28;51.64;63888.34;5027273;28;20238;-78
2022/09/26 09:20:18;;;;;;;7.88;5.35;;;;;;;18.48;51.40;63906.09;5026045;28;20423;-77
2022/09/26 09:22:59;;;;;;;5.97;4.93;;;;;;;18.69;50.94;63930.56;5034208;28;20229;-76
2022/09/26 09:25:31;;;;;;;5.38;4.95;;;;;;;18.75;50.78;63936.81;5025291;28;20261;-76
2022/09/26 09:28:18;;;;;;;8.57;4.93;;;;;;;18.86;50.57;63945.69;5029075;28;20217;-77
2022/09/26 09:30:48;;;;;;;8.57;4.63;;;;;;;19.03;49.57;63971.16;5042681;28;20201;-77
2022/09/26 09:33:19;;;;;;;8.35;5.80;;;;;;;19.21;49.38;63984.75;5037957;28;20221;-76
2022/09/26 09:35:49;;;;;;;6.28;4.03;;;;;;;19.39;49.18;64003.56;5042258;28;20408;-77
2022/09/26 09:38:19;;;;;;;9.32;4.50;;;;;;;19.59;47.84;64023.88;5047023;28;20283;-76
2022/09/26 09:40:52;;;;;;;4.03;3.63;;;;;;;19.86;46.95;64054.13;5045738;28;20373;-78
2022/09/26 09:43:27;;;;;;;4.18;3.85;;;;;;;20.09;46.46;64073.47;5044126;28;20289;-77
2022/09/26 09:46:01;;;;;;;13.18;4.10;;;;;;;20.22;46.19;64086.53;5040980;28;20264;-78
2022/09/26 09:48:28;;;;;;;8.25;4.60;;;;;;;20.24;47.34;64088.63;5030289;28;20221;-77
2022/09/26 09:51:07;;;;;;;7.25;4.28;;;;;;;19.96;48.52;64064.56;5043874;28;20201;-78
2022/09/26 09:53:50;;;;;;;4.65;4.25;;;;;;;20.10;49.75;64079.16;5041403;28;20466;-78
2022/09/26 09:56:30;;;;;;;5.15;4.75;;;;;;;20.30;48.38;64100.56;5039296;28;20198;-77
2022/09/26 09:59:19;;;;;;;9.10;3.85;;;;;;;20.55;48.28;64123.56;5034719;28;20209;-77
2022/09/26 10:01:53;;;;;;;8.27;4.47;;;;;;;20.72;46.89;64138.19;5031704;28;20224;-78
2022/09/26 10:04:35;;;;;;;5.03;3.70;;;;;;;20.84;47.05;64153.31;5048651;28;20197;-78
2022/09/26 10:07:04;;;;;;;4.93;4.15;;;;;;;20.94;47.99;64164.28;5046528;28;20229;-79
2022/09/26 10:09:38;;;;;;;5.03;3.95;;;;;;;21.13;48.52;64189.31;5046870;28;20189;-79
2022/09/26 10:12:12;;;;;;;6.40;3.95;;;;;;;21.18;46.94;64189.34;5037721;28;20218;-78
2022/09/26 10:14:49;;;;;;;8.23;4.40;;;;;;;21.34;46.38;64206.06;5029933;28;20194;-78
2022/09/26 10:17:20;;;;;;;7.38;3.88;;;;;;;21.31;46.52;64199.81;5047433;28;20229;-78
2022/09/26 10:19:48;;;;;;;3.90;3.53;;;;;;;21.38;45.35;64207.63;5050663;28;20197;-78
2022/09/26 10:22:24;;;;;;;4.82;3.58;;;;;;;21.31;44.77;64205.00;5047479;28;20225;-78
2022/09/26 10:24:53;;;;;;;5.63;3.55;;;;;;;21.47;44.85;64219.63;5047805;28;20195;-78
2022/09/26 10:27:26;;;;;;;4.68;3.78;;;;;;;21.64;45.50;64234.28;5048747;28;20279;-79
2022/09/26 10:29:59;;;;;;;5.45;4.72;;;;;;;21.46;44.31;64218.06;5039185;28;20202;-79
2022/09/26 10:32:26;;;;;;;10.68;3.97;;;;;;;21.49;44.82;64229.50;5032432;28;20213;-79
2022/09/26 10:35:17;;;;;;;4.43;3.72;;;;;;;21.75;44.35;64250.97;5048007;28;20205;-79
2022/09/26 10:37:50;;;;;;;8.05;4.97;;;;;;;21.95;43.83;64266.69;5036416;28;20214;-79
2022/09/26 10:43:23;;;;;;;4.53;3.45;;;;;;;22.55;42.66;64331.50;5041768;28;20240;-77
2022/09/26 10:45:54;;;;;;;14.80;4.20;;;;;;;22.79;41.92;64354.00;5035987;28;20193;-79
2022/09/26 10:48:26;;;;;;;3.92;3.53;;;;;;;22.92;42.31;64368.09;5041039;28;20237;-79
2022/09/26 10:51:00;;;;;;;5.97;3.60;;;;;;;23.07;41.44;64385.88;5034601;28;20532;-79
2022/09/26 10:53:34;;;;;;;5.28;3.95;;;;;;;23.21;41.46;64400.50;5041685;28;20228;-78
2022/09/26 10:56:07;;;;;;;4.10;3.80;;;;;;;23.57;41.51;64437.66;5040709;28;20197;-80
2022/09/26 10:58:40;;;;;;;5.43;3.83;;;;;;;23.69;41.20;64452.81;5036370;28;20431;-79
2022/09/26 11:01:19;;;;;;;4.05;3.63;;;;;;;23.72;40.93;64456.50;5037690;28;20216;-79
2022/09/26 11:03:46;;;;;;;4.68;3.67;;;;;;;24.00;40.90;64483.19;5037627;28;20238;-77
2022/09/26 11:06:25;;;;;;;6.45;3.30;;;;;;;24.42;41.31;64526.63;5038226;28;20263;-79
2022/09/26 11:09:01;;;;;;;7.60;3.15;;;;;;;24.73;38.62;64559.13;5040927;28;20505;-79
2022/09/26 11:11:32;;;;;;;5.40;3.72;;;;;;;24.93;39.18;64576.94;5035270;28;20435;-79
2022/09/26 11:14:04;;;;;;;7.45;3.72;;;;;;;25.17;38.20;64604.16;5038276;28;20232;-77
2022/09/26 11:16:49;;;;;;;4.05;3.22;;;;;;;25.25;37.46;64613.06;5039723;28;20215;-78
2022/09/26 11:19:27;;;;;;;4.22;3.20;;;;;;;25.12;37.42;64599.44;5042639;28;20243;-80
2022/09/26 11:22:00;;;;;;;11.45;4.03;;;;;;;25.06;37.65;64595.75;5038806;28;20237;-78
2022/09/26 11:24:36;;;;;;;6.30;3.50;;;;;;;24.93;37.97;64577.47;5037632;28;20272;-78
2022/09/26 11:27:15;;;;;;;5.15;3.20;;;;;;;23.87;40.09;64474.78;5033154;28;20234;-79
2022/09/26 11:29:46;;;;;;;3.67;3.38;;;;;;;23.64;40.82;64445.50;5037390;28;20820;-78
2022/09/26 11:32:22;;;;;;;8.70;3.47;;;;;;;23.33;41.64;64415.66;5033462;28;20267;-78
2022/09/26 11:34:53;;;;;;;5.20;3.28;;;;;;;23.55;41.33;64438.69;5044469;28;20213;-78
2022/09/26 11:37:31;;;;;;;5.72;3.25;;;;;;;23.25;42.01;64404.69;5044472;28;20237;-79
2022/09/26 11:40:21;;;;;;;7.30;3.28;;;;;;;23.57;42.25;64440.78;5034472;28;20216;-78
2022/09/26 11:43:13;;;;;;;3.58;3.25;;;;;;;23.33;41.26;64417.75;5041232;28;20521;-78
2022/09/26 11:45:56;;;;;;;5.68;3.08;;;;;;;23.39;42.04;64421.97;5026138;28;20240;-78
2022/09/26 11:48:44;;;;;;;5.57;2.95;;;;;;;23.75;41.29;64457.03;5036027;28;20249;-78
2022/09/26 11:51:21;;;;;;;4.25;2.55;;;;;;;24.21;40.23;64498.94;5036697;28;20209;-79
2022/09/26 11:54:03;;;;;;;8.35;2.92;;;;;;;24.47;40.88;64536.56;5035096;28;20554;-80
2022/09/26 11:56:46;;;;;;;7.20;2.70;;;;;;;24.80;40.91;64566.44;5037400;28;20216;-78
2022/09/26 11:59:29;;;;;;;3.47;2.88;;;;;;;24.75;40.20;64558.59;5039203;28;20206;-80
2022/09/26 12:02:14;;;;;;;2.78;2.45;;;;;;;24.82;39.84;64565.94;5040946;28;20231;-78
2022/09/26 12:05:02;;;;;;;3.50;2.17;;;;;;;24.35;40.67;64518.78;5037144;28;20209;-78
2022/09/26 12:07:36;;;;;;;2.85;2.40;;;;;;;24.25;40.88;64508.31;5034630;28;20252;-78
2022/09/26 12:10:18;;;;;;;2.15;2.05;;;;;;;24.02;40.84;64485.28;5034371;28;20224;-78